Time;durP1;ratioP1;P1;durP2;ratioP2;P2;SDS_P1;SDS_P2;PMS_P1;PMS_P2;Temp;Humidity;BMP_temperature;BMP_pressure;BME280_temperature;BME280_humidity;BME280_pressure;Samples;Min_cycle;Max_cycle;Signal;HPM_P1;HPM_P2
2022/03/09 00:00:14;;;;;;;0.80;0.80;;;;;;;4.89;100.00;95052.41;5133295;27;20479;-55
2022/03/09 00:02:44;;;;;;;0.40;0.40;;;;;;;4.50;100.00;95067.28;5134098;28;20828;-56
2022/03/09 00:05:13;;;;;;;1.00;0.50;;;;;;;4.19;100.00;94952.41;5133651;27;20434;-56
2022/03/09 00:07:42;;;;;;;0.40;0.40;;;;;;;4.94;100.00;95067.44;5133964;28;20458;-57
2022/03/09 00:10:11;;;;;;;0.40;0.40;;;;;;;4.79;100.00;94998.94;5132817;27;20509;-56
2022/03/09 00:12:39;;;;;;;0.30;0.20;;;;;;;4.90;98.49;95050.59;5138458;27;20561;-56
2022/03/09 00:15:12;;;;;;;0.50;0.50;;;;;;;5.03;100.00;95050.25;5139638;27;20438;-56
2022/03/09 00:17:41;;;;;;;0.30;0.20;;;;;;;4.49;100.00;95054.41;5138464;27;20450;-55
2022/03/09 00:20:11;;;;;;;0.30;0.30;;;;;;;4.34;100.00;95009.56;5140088;27;20505;-55
2022/03/09 00:22:40;;;;;;;0.53;0.53;;;;;;;4.20;98.52;95047.63;5139129;27;20506;-55
2022/03/09 00:25:10;;;;;;;0.30;0.30;;;;;;;4.25;100.00;95056.34;5140095;27;20521;-56
2022/03/09 00:27:40;;;;;;;0.40;0.40;;;;;;;4.35;100.00;94980.44;5139322;27;20532;-55
2022/03/09 00:30:10;;;;;;;0.50;0.30;;;;;;;4.84;100.00;95041.84;5140111;27;20778;-56
2022/03/09 00:32:42;;;;;;;1.43;0.67;;;;;;;4.40;100.00;95004.13;5137380;27;21042;-55
2022/03/09 00:35:12;;;;;;;0.60;0.30;;;;;;;4.67;99.16;95040.25;5136793;27;20458;-56
2022/03/09 00:37:40;;;;;;;0.80;0.80;;;;;;;4.46;99.10;95039.94;5137158;27;20410;-55
2022/03/09 00:40:10;;;;;;;0.30;0.30;;;;;;;4.38;97.43;95015.91;5138290;27;20880;-55
2022/03/09 00:42:40;;;;;;;0.30;0.20;;;;;;;4.46;96.72;95034.69;5135677;27;20496;-55
2022/03/09 00:45:09;;;;;;;2.40;0.37;;;;;;;4.49;96.35;95030.78;5136323;27;20517;-55
2022/03/09 00:47:38;;;;;;;1.17;0.37;;;;;;;1.50;95.71;94582.44;5136678;27;20881;-55
2022/03/09 00:50:07;;;;;;;1.17;1.17;;;;;;;3.83;95.29;95042.75;5136269;27;20431;-55
2022/03/09 00:52:39;;;;;;;0.73;0.73;;;;;;;3.78;95.77;95032.19;5136520;27;20410;-55
2022/03/09 00:55:08;;;;;;;0.73;0.73;;;;;;;4.06;96.07;95025.31;5136190;27;20421;-56
2022/03/09 00:57:39;;;;;;;0.30;0.20;;;;;;;4.27;99.89;95029.91;5136194;27;20426;-55
2022/03/09 01:00:09;;;;;;;0.40;0.40;;;;;;;4.27;100.00;95029.91;5136481;27;20498;-55
2022/03/09 01:02:41;;;;;;;0.30;0.23;;;;;;;3.76;97.68;95030.81;5136214;27;21084;-55
2022/03/09 01:05:11;;;;;;;0.30;0.20;;;;;;;3.83;96.63;95021.78;5135978;27;20432;-55
2022/03/09 01:07:43;;;;;;;0.30;0.30;;;;;;;3.85;99.07;95032.81;5136025;27;20434;-55
2022/03/09 01:10:12;;;;;;;0.30;0.20;;;;;;;3.92;100.00;95029.28;5136204;27;20506;-55
2022/03/09 01:12:45;;;;;;;0.30;0.20;;;;;;;2.42;91.70;94827.88;5136213;27;20430;-55
2022/03/09 01:15:14;;;;;;;0.40;0.30;;;;;;;3.76;98.15;95034.25;5135845;27;20430;-55
2022/03/09 01:17:45;;;;;;;0.30;0.20;;;;;;;3.64;96.48;95030.06;5135647;27;20454;-55
2022/03/09 01:20:14;;;;;;;0.30;0.20;;;;;;;3.40;97.41;95031.94;5135987;27;20443;-55
2022/03/09 01:22:47;;;;;;;0.30;0.20;;;;;;;3.62;99.45;95029.47;5135107;27;20482;-56
2022/03/09 01:25:16;;;;;;;0.30;0.20;;;;;;;3.79;97.21;95039.00;5135866;27;20517;-55
2022/03/09 01:27:48;;;;;;;3.07;0.30;;;;;;;4.17;100.00;95034.97;5135675;27;20427;-56
2022/03/09 01:30:17;;;;;;;0.40;0.40;;;;;;;3.82;96.29;95043.78;5135852;27;20839;-56
2022/03/09 01:32:45;;;;;;;0.30;0.20;;;;;;;3.40;100.00;95033.75;5135004;27;20438;-55
2022/03/09 01:35:13;;;;;;;0.30;0.20;;;;;;;2.87;94.59;95031.31;5135044;27;20422;-55
2022/03/09 01:37:42;;;;;;;0.30;0.20;;;;;;;2.69;94.31;95015.72;5135599;27;20423;-55
2022/03/09 01:40:13;;;;;;;0.37;0.37;;;;;;;3.13;95.69;95020.38;5135615;27;20518;-55
2022/03/09 01:42:41;;;;;;;0.30;0.20;;;;;;;2.58;97.54;95013.94;5135470;27;20834;-55
2022/03/09 01:45:12;;;;;;;1.80;1.80;;;;;;;2.73;98.97;95025.53;5135183;27;20491;-55
2022/03/09 01:47:41;;;;;;;0.30;0.20;;;;;;;2.78;97.47;95022.22;5135236;27;20522;-55
2022/03/09 01:50:10;;;;;;;0.40;0.40;;;;;;;3.40;100.00;95021.47;5135405;27;20481;-55
2022/03/09 01:52:40;;;;;;;0.30;0.30;;;;;;;2.48;98.50;94965.56;5135118;27;20516;-55
2022/03/09 01:55:09;;;;;;;0.70;0.67;;;;;;;2.52;98.75;95021.66;5135071;27;20513;-55
2022/03/09 01:57:40;;;;;;;0.30;0.20;;;;;;;2.92;100.00;95023.59;5135009;27;20465;-55
2022/03/09 02:00:11;;;;;;;0.30;0.30;;;;;;;2.56;96.20;94985.34;5134879;27;20922;-55
2022/03/09 02:02:39;;;;;;;0.30;0.20;;;;;;;2.99;100.00;95013.78;5135065;27;20882;-56
2022/03/09 02:05:09;;;;;;;0.40;0.30;;;;;;;2.65;96.61;95030.31;5134778;27;20427;-56
2022/03/09 02:10:24;;;;;;;0.30;0.20;;;;;;;2.64;100.00;95033.94;5134314;27;20426;-56
2022/03/09 02:12:54;;;;;;;0.57;0.57;;;;;;;2.88;100.00;95038.16;5134570;27;20931;-55
2022/03/09 02:15:22;;;;;;;0.70;0.70;;;;;;;2.21;100.00;94974.06;5134631;27;20419;-55
2022/03/09 02:17:51;;;;;;;0.30;0.20;;;;;;;2.05;100.00;95001.66;5134577;27;20438;-55
2022/03/09 02:20:19;;;;;;;0.40;0.40;;;;;;;1.80;100.00;94990.56;5137179;27;20479;-55
2022/03/09 02:22:49;;;;;;;0.30;0.27;;;;;;;2.68;100.00;95037.72;5134534;27;20517;-55
2022/03/09 02:25:18;;;;;;;1.40;1.40;;;;;;;2.44;100.00;95021.97;5135008;27;20462;-55
2022/03/09 02:27:46;;;;;;;0.30;0.30;;;;;;;2.79;100.00;94997.63;5134309;27;20469;-55
2022/03/09 02:30:20;;;;;;;0.30;0.20;;;;;;;3.69;100.00;95032.78;5134415;27;20419;-55
2022/03/09 02:32:50;;;;;;;0.30;0.20;;;;;;;2.66;100.00;94984.81;5134223;27;20452;-55
2022/03/09 02:35:20;;;;;;;0.30;0.20;;;;;;;3.03;100.00;95034.06;5133654;27;20427;-55
2022/03/09 02:37:50;;;;;;;0.30;0.20;;;;;;;2.23;100.00;94818.59;5134157;27;20859;-55
2022/03/09 02:40:18;;;;;;;0.30;0.20;;;;;;;3.50;98.58;95005.16;5134186;27;21131;-55
2022/03/09 02:42:47;;;;;;;0.30;0.30;;;;;;;3.90;97.85;95023.47;5133922;27;20946;-55
2022/03/09 02:45:18;;;;;;;0.30;0.27;;;;;;;3.75;93.41;95037.88;5134068;27;20411;-56
2022/03/09 02:47:46;;;;;;;0.30;0.20;;;;;;;3.69;91.68;95033.56;5133012;27;20473;-55
2022/03/09 02:50:16;;;;;;;0.40;0.40;;;;;;;3.69;91.85;95011.81;5133914;27;20461;-55
2022/03/09 02:52:45;;;;;;;0.30;0.20;;;;;;;3.88;95.66;95036.81;5133823;27;20431;-55
2022/03/09 02:55:15;;;;;;;0.30;0.30;;;;;;;3.04;86.86;95040.06;5133697;27;20484;-55
2022/03/09 02:57:44;;;;;;;0.30;0.20;;;;;;;2.41;92.79;94980.59;5133630;27;20986;-55
2022/03/09 03:00:14;;;;;;;0.30;0.20;;;;;;;2.35;91.64;95025.94;5133614;27;21188;-55
2022/03/09 03:02:42;;;;;;;0.30;0.20;;;;;;;2.19;93.87;95038.88;5133847;27;20427;-55
2022/03/09 03:05:11;;;;;;;0.30;0.20;;;;;;;2.60;97.83;95038.03;5133755;27;20827;-55
2022/03/09 03:07:40;;;;;;;2.20;0.50;;;;;;;2.65;100.00;95041.56;5133847;27;20422;-55
2022/03/09 03:10:09;;;;;;;0.30;0.20;;;;;;;3.06;100.00;95032.81;5133307;27;20465;-55
2022/03/09 03:12:39;;;;;;;0.30;0.30;;;;;;;2.92;98.53;95008.69;5132803;27;20542;-55
2022/03/09 03:15:08;;;;;;;0.30;0.20;;;;;;;3.03;92.48;95007.09;5133411;27;20910;-55
2022/03/09 03:17:37;;;;;;;0.40;0.30;;;;;;;3.50;91.37;95055.72;5133615;27;20430;-55
2022/03/09 03:20:07;;;;;;;0.30;0.20;;;;;;;3.74;86.30;95061.72;5133572;27;20506;-56
2022/03/09 03:22:35;;;;;;;0.43;0.40;;;;;;;3.93;86.46;95054.44;5133214;27;20906;-56
2022/03/09 03:25:04;;;;;;;0.77;0.77;;;;;;;3.88;92.96;95047.28;5133382;27;20618;-56
2022/03/09 03:27:33;;;;;;;0.40;0.40;;;;;;;3.61;96.14;95046.25;5133159;27;20454;-56
2022/03/09 03:30:03;;;;;;;0.30;0.20;;;;;;;3.87;95.74;95056.19;5133443;27;20837;-56
2022/03/09 03:32:31;;;;;;;0.40;0.40;;;;;;;3.91;94.41;95061.75;5133355;27;20483;-56
2022/03/09 03:35:00;;;;;;;0.30;0.20;;;;;;;3.95;94.39;95055.81;5133083;27;20529;-55
2022/03/09 03:37:28;;;;;;;0.67;0.67;;;;;;;3.50;94.50;95021.66;5133105;27;20446;-55
2022/03/09 03:39:56;;;;;;;0.30;0.20;;;;;;;3.99;92.67;95064.81;5132477;27;20464;-56
2022/03/09 03:42:25;;;;;;;0.67;0.67;;;;;;;4.09;89.33;95072.06;5132960;27;20513;-55
2022/03/09 03:44:55;;;;;;;2.50;1.63;;;;;;;3.88;85.31;95068.25;5132806;27;20478;-55
2022/03/09 03:47:24;;;;;;;0.40;0.37;;;;;;;4.04;87.16;95071.97;5132865;27;20462;-56
2022/03/09 03:49:56;;;;;;;0.50;0.50;;;;;;;4.26;92.56;95071.06;5132902;27;20490;-55
2022/03/09 03:52:24;;;;;;;0.30;0.20;;;;;;;4.25;87.17;95063.44;5132452;28;20427;-56
2022/03/09 03:54:53;;;;;;;0.30;0.20;;;;;;;4.29;84.17;95075.84;5132763;28;20431;-55
2022/03/09 03:57:21;;;;;;;0.30;0.20;;;;;;;3.83;86.52;95055.06;5132745;28;20415;-55
2022/03/09 03:59:50;;;;;;;0.50;0.43;;;;;;;3.84;87.86;95083.66;5132708;28;20470;-55
2022/03/09 04:02:18;;;;;;;0.90;0.50;;;;;;;3.85;87.45;95069.53;5133006;28;20458;-55
2022/03/09 04:04:50;;;;;;;0.30;0.20;;;;;;;3.82;83.22;95085.72;5132785;28;20698;-56
2022/03/09 04:07:19;;;;;;;0.50;0.50;;;;;;;3.65;81.79;95086.66;5132962;27;20997;-56
2022/03/09 04:09:48;;;;;;;3.70;0.40;;;;;;;3.03;81.53;95047.16;5132782;27;20505;-56
2022/03/09 04:12:16;;;;;;;0.30;0.20;;;;;;;3.80;82.98;95084.34;5132647;28;20454;-56
2022/03/09 04:14:44;;;;;;;0.30;0.30;;;;;;;3.83;81.73;95089.13;5132701;28;20447;-56
2022/03/09 04:17:14;;;;;;;0.73;0.73;;;;;;;4.06;82.13;95094.31;5132594;28;20999;-57
2022/03/09 04:19:42;;;;;;;0.30;0.20;;;;;;;4.07;80.31;95095.09;5132833;27;20446;-55
2022/03/09 04:22:12;;;;;;;0.60;0.60;;;;;;;4.10;85.30;95090.19;5136502;28;20505;-55
2022/03/09 04:24:40;;;;;;;0.30;0.30;;;;;;;4.20;84.44;95076.47;5133145;28;20584;-56
2022/03/09 04:27:09;;;;;;;0.40;0.40;;;;;;;4.22;85.38;95077.81;5132642;27;20418;-56
2022/03/09 04:29:38;;;;;;;0.40;0.40;;;;;;;3.60;86.42;94997.47;5132514;28;20419;-56
2022/03/09 04:32:09;;;;;;;0.60;0.60;;;;;;;4.05;90.70;95057.84;5132453;28;20486;-56
2022/03/09 04:34:37;;;;;;;1.73;0.53;;;;;;;4.23;91.13;95089.09;5132465;27;20466;-56
2022/03/09 04:37:06;;;;;;;0.97;0.97;;;;;;;4.00;91.18;95094.47;5132274;28;20469;-56
2022/03/09 04:39:36;;;;;;;0.30;0.20;;;;;;;3.65;92.41;95087.47;5132428;27;20914;-56
2022/03/09 04:42:04;;;;;;;0.30;0.20;;;;;;;2.83;89.28;94973.44;5132262;28;21029;-56
2022/03/09 04:44:33;;;;;;;0.87;0.77;;;;;;;2.66;92.00;94990.03;5132578;28;20569;-56
2022/03/09 04:47:01;;;;;;;0.30;0.30;;;;;;;3.09;85.85;95095.16;5132271;28;20806;-56
2022/03/09 04:49:30;;;;;;;1.17;1.10;;;;;;;3.14;81.45;95101.31;5132553;28;20431;-56
2022/03/09 04:51:58;;;;;;;0.40;0.30;;;;;;;3.22;87.17;95085.25;5132208;28;20949;-56
2022/03/09 04:54:27;;;;;;;0.30;0.20;;;;;;;3.18;82.13;95104.28;5132543;28;20430;-55
2022/03/09 04:56:57;;;;;;;0.30;0.20;;;;;;;3.08;83.37;95107.47;5133198;27;20442;-56
2022/03/09 04:59:25;;;;;;;2.40;2.23;;;;;;;2.72;79.66;95106.84;5135924;27;20461;-56
2022/03/09 05:01:54;;;;;;;1.37;0.57;;;;;;;2.62;78.35;95110.03;5135798;27;20997;-56
2022/03/09 05:04:22;;;;;;;0.30;0.20;;;;;;;2.54;78.87;95113.78;5136389;27;20473;-56
2022/03/09 05:06:51;;;;;;;1.13;0.50;;;;;;;2.24;80.53;95105.16;5135684;27;20457;-56
2022/03/09 05:09:19;;;;;;;0.30;0.30;;;;;;;2.98;81.17;95119.53;5135808;27;20921;-56
2022/03/09 05:11:47;;;;;;;0.30;0.20;;;;;;;2.90;77.23;95106.78;5135746;27;20889;-56
2022/03/09 05:14:17;;;;;;;0.30;0.20;;;;;;;2.85;78.50;95114.50;5135663;27;20459;-56
2022/03/09 05:16:46;;;;;;;0.67;0.67;;;;;;;3.01;82.55;95114.63;5135661;27;20446;-56
2022/03/09 05:19:14;;;;;;;1.03;1.03;;;;;;;3.09;84.18;95114.28;5135775;27;20422;-56
2022/03/09 05:21:43;;;;;;;1.40;1.40;;;;;;;2.76;82.97;95121.09;5135461;27;20494;-56
2022/03/09 05:24:31;;;;;;;6.17;1.43;;;;;;;3.07;84.33;95108.50;5094488;28;21023;-56
2022/03/09 05:27:00;;;;;;;13.73;2.60;;;;;;;3.36;81.17;95117.25;5094534;28;20574;-56
2022/03/09 05:29:29;;;;;;;0.30;0.20;;;;;;;3.47;84.30;95124.28;5094488;28;20516;-56
2022/03/09 05:32:00;;;;;;;0.40;0.40;;;;;;;3.55;84.79;95116.09;5094497;28;20493;-56
2022/03/09 05:34:28;;;;;;;0.50;0.50;;;;;;;3.34;83.92;95111.44;5094110;28;20490;-56
2022/03/09 05:36:57;;;;;;;1.40;1.40;;;;;;;3.55;85.16;95113.47;5094588;28;20860;-56
2022/03/09 05:39:26;;;;;;;1.03;1.03;;;;;;;3.50;81.34;95117.81;5093973;28;20464;-56
2022/03/09 05:41:54;;;;;;;0.50;0.50;;;;;;;3.56;78.41;95091.50;5094063;28;20420;-56
2022/03/09 05:44:23;;;;;;;1.23;1.13;;;;;;;3.65;75.01;95125.97;5093592;28;20936;-56
2022/03/09 05:46:54;;;;;;;1.87;1.80;;;;;;;3.27;75.71;95113.38;5093878;28;20428;-56
2022/03/09 05:49:22;;;;;;;0.80;0.80;;;;;;;3.70;77.43;95132.13;5094142;28;20996;-56
2022/03/09 05:51:52;;;;;;;1.67;1.63;;;;;;;3.97;81.47;95131.63;5093895;28;20456;-56
2022/03/09 05:54:21;;;;;;;5.20;0.77;;;;;;;3.48;79.34;95063.03;5093727;28;20484;-56
2022/03/09 05:56:49;;;;;;;10.40;0.77;;;;;;;4.29;79.98;95127.50;5093520;28;20515;-56
2022/03/09 05:59:18;;;;;;;0.30;0.20;;;;;;;4.30;78.00;95142.22;5093736;28;20485;-56
2022/03/09 06:01:47;;;;;;;0.87;0.87;;;;;;;4.03;76.44;95143.78;5093328;28;20416;-56
2022/03/09 06:04:17;;;;;;;0.40;0.40;;;;;;;4.09;72.79;95143.66;5093586;28;20462;-56
2022/03/09 06:06:48;;;;;;;0.40;0.40;;;;;;;4.29;68.74;95128.31;5093646;28;20467;-56
2022/03/09 06:09:16;;;;;;;0.80;0.80;;;;;;;4.35;67.70;95153.59;5092462;28;20432;-56
2022/03/09 06:11:46;;;;;;;0.30;0.30;;;;;;;4.35;71.93;95148.34;5093713;28;20500;-56
2022/03/09 06:14:14;;;;;;;0.50;0.50;;;;;;;3.76;78.99;95149.56;5093720;28;20812;-56
2022/03/09 06:16:42;;;;;;;0.93;0.87;;;;;;;3.77;77.45;95158.19;5093503;28;20428;-56
2022/03/09 06:19:11;;;;;;;0.60;0.60;;;;;;;3.66;75.27;95157.22;5093302;28;20967;-56
2022/03/09 06:21:41;;;;;;;0.30;0.20;;;;;;;3.83;74.73;95158.09;5095240;28;20428;-56
2022/03/09 06:24:09;;;;;;;0.50;0.50;;;;;;;4.15;74.00;95157.69;5134633;27;20469;-56
2022/03/09 06:26:38;;;;;;;0.30;0.20;;;;;;;3.99;69.73;95158.41;5134531;27;20542;-56
2022/03/09 06:29:08;;;;;;;0.70;0.70;;;;;;;3.96;69.49;95158.84;5134388;27;20458;-56
2022/03/09 06:31:37;;;;;;;0.30;0.20;;;;;;;3.91;69.34;95150.88;5134131;27;20458;-56
2022/03/09 06:34:05;;;;;;;0.77;0.77;;;;;;;3.70;68.81;95150.47;5133675;27;20434;-56
2022/03/09 06:36:34;;;;;;;0.83;0.83;;;;;;;4.48;68.61;95157.75;5133846;27;20452;-56
2022/03/09 06:39:04;;;;;;;0.77;0.77;;;;;;;3.97;71.67;95168.34;5134157;27;20434;-56
2022/03/09 06:41:32;;;;;;;0.30;0.20;;;;;;;3.84;70.22;95174.63;5133842;27;20514;-56
2022/03/09 06:44:01;;;;;;;0.50;0.50;;;;;;;4.03;71.02;95162.94;5134417;27;20503;-56
2022/03/09 06:46:48;;;;;;;0.47;0.37;;;;;;;3.76;67.74;95099.75;5137562;27;20482;-56
2022/03/09 06:49:17;;;;;;;0.50;0.50;;;;;;;3.56;68.40;95078.41;5133693;27;20513;-56
2022/03/09 06:51:59;;;;;;;18.17;0.90;;;;;;;4.94;67.77;95162.78;5135995;27;20446;-56
2022/03/09 06:54:30;;;;;;;0.40;0.40;;;;;;;5.84;64.24;95164.41;5134404;27;20443;-56
2022/03/09 06:56:59;;;;;;;0.60;0.53;;;;;;;4.84;60.38;95161.81;5134844;27;20446;-56
2022/03/09 06:59:28;;;;;;;7.47;0.87;;;;;;;5.67;58.94;95165.22;5134189;27;20435;-56
2022/03/09 07:02:00;;;;;;;0.30;0.20;;;;;;;6.52;58.97;95166.56;5136039;27;20890;-56
2022/03/09 07:04:30;;;;;;;0.30;0.20;;;;;;;6.59;53.28;95164.53;5134495;27;20442;-55
2022/03/09 07:06:59;;;;;;;1.63;1.53;;;;;;;6.97;54.50;95159.09;5134995;27;20463;-55
2022/03/09 07:09:28;;;;;;;0.70;0.70;;;;;;;7.14;53.77;95146.59;5134039;27;20435;-55
2022/03/09 07:11:58;;;;;;;0.57;0.57;;;;;;;7.95;54.19;95155.03;5133421;27;20509;-55
2022/03/09 07:14:27;;;;;;;0.40;0.30;;;;;;;7.91;50.78;95153.97;5133776;27;20423;-54
2022/03/09 07:16:56;;;;;;;1.17;1.17;;;;;;;8.04;49.10;95151.66;5133633;27;20863;-53
2022/03/09 07:19:25;;;;;;;0.40;0.30;;;;;;;7.47;50.01;95156.88;5132965;27;20426;-54
2022/03/09 07:21:55;;;;;;;0.40;0.40;;;;;;;7.58;49.11;95158.53;5133022;27;20425;-56
2022/03/09 07:24:24;;;;;;;0.40;0.30;;;;;;;8.08;48.92;95151.94;5133476;27;20426;-52
2022/03/09 07:26:56;;;;;;;1.50;1.10;;;;;;;8.22;46.92;95147.78;5133117;27;20573;-52
2022/03/09 07:29:26;;;;;;;1.53;1.20;;;;;;;8.81;47.05;95151.69;5133251;27;20920;-52
2022/03/09 07:31:58;;;;;;;1.00;1.00;;;;;;;9.00;47.59;95153.81;5133060;27;20931;-53
2022/03/09 07:34:27;;;;;;;0.63;0.63;;;;;;;8.56;46.35;95101.44;5132847;27;20432;-53
2022/03/09 07:36:59;;;;;;;0.40;0.30;;;;;;;9.17;44.95;95147.22;5132899;27;20457;-53
2022/03/09 07:39:29;;;;;;;0.57;0.53;;;;;;;9.26;40.64;95152.78;5132909;27;20427;-53
2022/03/09 07:42:01;;;;;;;1.53;0.60;;;;;;;9.57;41.78;95149.84;5133176;27;20487;-53
2022/03/09 07:44:31;;;;;;;0.50;0.50;;;;;;;10.27;39.54;95145.47;5133173;27;20808;-53
2022/03/09 07:47:01;;;;;;;1.27;0.53;;;;;;;10.08;39.62;95145.25;5132570;27;20462;-54
2022/03/09 07:49:33;;;;;;;0.40;0.40;;;;;;;10.31;38.93;95135.13;5132516;27;20431;-53
2022/03/09 07:52:03;;;;;;;0.53;0.53;;;;;;;9.96;38.52;95131.53;5132870;27;20850;-53
2022/03/09 07:54:32;;;;;;;0.50;0.37;;;;;;;10.01;39.36;95131.50;5133054;27;20453;-54
2022/03/09 07:57:01;;;;;;;0.63;0.63;;;;;;;9.18;41.12;95138.25;5133573;28;20437;-54
2022/03/09 07:59:31;;;;;;;0.67;0.60;;;;;;;8.65;43.57;95136.84;5132717;28;20548;-53
2022/03/09 08:02:00;;;;;;;0.30;0.30;;;;;;;9.87;41.36;95133.13;5132794;28;20434;-54
2022/03/09 08:04:29;;;;;;;0.43;0.40;;;;;;;10.08;40.49;95129.34;5133183;27;20426;-53
2022/03/09 08:06:58;;;;;;;1.30;1.30;;;;;;;9.56;40.60;95132.38;5132655;28;20973;-53
2022/03/09 08:09:26;;;;;;;6.90;0.63;;;;;;;9.74;40.34;95128.38;5132587;27;20514;-53
2022/03/09 08:11:54;;;;;;;0.37;0.30;;;;;;;10.26;41.62;95130.66;5132224;28;20573;-53
2022/03/09 08:14:23;;;;;;;0.33;0.27;;;;;;;11.24;40.41;95119.97;5131828;28;20453;-53
2022/03/09 08:16:52;;;;;;;0.43;0.40;;;;;;;11.63;37.86;95112.75;5132507;28;20469;-54
2022/03/09 08:19:21;;;;;;;0.63;0.63;;;;;;;11.75;39.21;95118.50;5132405;28;20418;-54
2022/03/09 08:21:49;;;;;;;0.30;0.20;;;;;;;12.18;36.76;95111.38;5132076;28;20470;-56
2022/03/09 08:24:18;;;;;;;0.93;0.93;;;;;;;11.77;35.95;95115.53;5133977;28;20461;-56
2022/03/09 08:26:46;;;;;;;1.77;1.77;;;;;;;11.47;35.29;95113.94;5132567;27;20458;-57
2022/03/09 08:29:14;;;;;;;2.33;2.23;;;;;;;12.24;36.16;95112.91;5132320;28;20457;-57
2022/03/09 08:31:43;;;;;;;1.20;1.20;;;;;;;12.42;33.03;95119.34;5132607;27;20902;-57
2022/03/09 08:34:13;;;;;;;1.80;0.77;;;;;;;12.79;36.09;95119.38;5136303;27;20422;-56
2022/03/09 08:36:41;;;;;;;0.73;0.73;;;;;;;12.91;34.35;95118.94;5136423;27;20479;-60
2022/03/09 08:39:09;;;;;;;0.43;0.40;;;;;;;11.25;35.12;95124.22;5136633;27;20442;-59
2022/03/09 08:41:38;;;;;;;0.50;0.50;;;;;;;11.12;35.25;95123.00;5136076;27;20434;-59
2022/03/09 08:44:26;;;;;;;2.97;1.37;;;;;;;10.88;35.05;95111.47;5138073;27;20410;-59
2022/03/09 08:46:59;;;;;;;0.40;0.30;;;;;;;11.76;37.33;95111.31;5137225;27;20511;-58
2022/03/09 08:49:30;;;;;;;1.13;1.03;;;;;;;11.62;32.31;95105.84;5136159;27;20418;-58
2022/03/09 08:51:59;;;;;;;0.53;0.53;;;;;;;11.97;32.42;95096.75;5135890;27;21005;-58
2022/03/09 08:54:27;;;;;;;0.30;0.20;;;;;;;13.90;31.26;95097.09;5135926;27;20414;-57
2022/03/09 08:56:55;;;;;;;0.30;0.20;;;;;;;13.16;28.71;95097.28;5135894;27;20431;-57
2022/03/09 08:59:24;;;;;;;0.30;0.20;;;;;;;12.65;31.22;95098.00;5135513;27;20423;-58
2022/03/09 09:01:53;;;;;;;0.60;0.50;;;;;;;13.04;32.71;95088.94;5135582;27;21023;-57
2022/03/09 09:04:22;;;;;;;0.40;0.30;;;;;;;12.96;30.36;95092.25;5135690;27;20458;-56
2022/03/09 09:06:52;;;;;;;3.53;0.40;;;;;;;13.30;30.75;95079.50;5134867;27;20461;-56
2022/03/09 09:09:21;;;;;;;1.90;0.40;;;;;;;11.97;31.15;95086.09;5135243;27;20467;-57
2022/03/09 09:11:49;;;;;;;0.30;0.30;;;;;;;12.35;31.16;95085.13;5135537;27;20422;-56
2022/03/09 09:14:17;;;;;;;0.40;0.37;;;;;;;13.19;29.29;95091.38;5136050;27;20469;-56
2022/03/09 09:16:48;;;;;;;1.23;0.70;;;;;;;12.72;30.59;95093.13;5135762;27;20422;-56
2022/03/09 09:19:17;;;;;;;0.40;0.30;;;;;;;11.33;32.44;95084.59;5135386;27;20487;-56
2022/03/09 09:21:46;;;;;;;1.17;1.03;;;;;;;11.08;33.69;95095.41;5135534;27;20411;-55
2022/03/09 09:24:16;;;;;;;0.50;0.40;;;;;;;11.29;35.46;95080.94;5135250;27;20530;-55
2022/03/09 09:26:45;;;;;;;0.30;0.30;;;;;;;11.71;33.46;95090.94;5135527;27;21034;-55
2022/03/09 09:29:33;;;;;;;0.37;0.30;;;;;;;12.01;30.83;95079.19;5134967;27;20822;-55
2022/03/09 09:32:02;;;;;;;0.50;0.50;;;;;;;12.23;34.40;95076.78;5135648;27;20450;-55
2022/03/09 09:34:30;;;;;;;0.43;0.37;;;;;;;11.55;32.60;95072.72;5135218;27;20446;-55
2022/03/09 09:37:02;;;;;;;0.60;0.40;;;;;;;11.38;34.73;95078.47;5135297;27;20430;-55
2022/03/09 09:39:31;;;;;;;0.50;0.47;;;;;;;11.86;34.97;95080.16;5135407;27;20423;-55
2022/03/09 09:42:00;;;;;;;0.43;0.37;;;;;;;11.52;36.27;95075.94;5135265;27;20522;-55
2022/03/09 09:44:30;;;;;;;0.60;0.43;;;;;;;10.91;35.41;95068.50;5134828;27;20460;-55
2022/03/09 09:46:58;;;;;;;0.40;0.40;;;;;;;10.82;35.28;95075.50;5135092;27;20542;-55
2022/03/09 09:49:27;;;;;;;2.60;1.03;;;;;;;10.87;36.11;95080.75;5134792;27;20411;-55
2022/03/09 09:51:55;;;;;;;1.07;0.60;;;;;;;10.51;34.99;95071.44;5134759;27;20989;-55
2022/03/09 09:54:24;;;;;;;0.83;0.83;;;;;;;11.03;35.22;95060.97;5134788;27;20978;-55
2022/03/09 09:56:59;;;;;;;0.50;0.40;;;;;;;10.81;35.70;95064.09;5134732;27;20431;-55
2022/03/09 09:59:28;;;;;;;0.53;0.50;;;;;;;11.13;35.54;95052.94;5134542;27;20422;-55
2022/03/09 10:01:58;;;;;;;1.70;1.23;;;;;;;10.97;32.50;95062.13;5134546;27;20509;-55
2022/03/09 10:04:27;;;;;;;0.30;0.20;;;;;;;11.84;30.60;95058.38;5134638;27;20545;-56
2022/03/09 10:06:55;;;;;;;0.40;0.40;;;;;;;11.91;30.45;95056.19;5134595;27;20539;-55
2022/03/09 10:09:24;;;;;;;0.40;0.30;;;;;;;12.32;29.88;95056.44;5134342;27;20979;-55
2022/03/09 10:11:53;;;;;;;0.70;0.70;;;;;;;11.36;30.33;95064.69;5134805;27;20522;-55
2022/03/09 10:14:48;;;;;;;0.80;0.80;;;;;;;11.53;30.10;95054.44;5134371;27;20495;-56
2022/03/09 10:17:18;;;;;;;1.27;1.17;;;;;;;13.13;28.99;95045.44;5134470;27;20483;-58
2022/03/09 10:19:50;;;;;;;1.10;0.73;;;;;;;14.45;28.70;95030.44;5134309;27;20430;-59
2022/03/09 10:22:23;;;;;;;0.40;0.40;;;;;;;13.61;28.35;95029.97;5134253;27;20987;-61
2022/03/09 10:25:23;;;;;;;0.40;0.40;;;;;;;12.64;31.16;95042.47;5134017;27;20427;-60
2022/03/09 10:27:53;;;;;;;0.43;0.40;;;;;;;13.24;29.67;95035.44;5134571;27;20458;-61
2022/03/09 10:30:25;;;;;;;0.50;0.50;;;;;;;13.69;32.47;95037.28;5134081;27;20484;-61
2022/03/09 10:32:56;;;;;;;0.70;0.70;;;;;;;12.89;29.79;95034.09;5132852;27;20472;-62
2022/03/09 10:35:41;;;;;;;1.20;0.70;;;;;;;12.60;29.71;95026.28;5133460;27;20423;-62
2022/03/09 10:38:23;;;;;;;0.50;0.50;;;;;;;13.76;27.35;95023.56;5134071;27;20812;-63
2022/03/09 10:40:54;;;;;;;0.50;0.30;;;;;;;13.20;28.72;95029.91;5133778;27;20430;-63
2022/03/09 10:43:24;;;;;;;1.07;0.97;;;;;;;11.62;31.59;95022.75;5133699;27;21009;-61
2022/03/09 10:46:02;;;;;;;0.50;0.50;;;;;;;11.43;31.46;95025.38;5133524;27;20423;-59
2022/03/09 10:48:52;;;;;;;0.40;0.30;;;;;;;11.33;33.82;95018.28;5133021;27;20503;-57
2022/03/09 10:51:29;;;;;;;0.93;0.67;;;;;;;10.73;36.05;95026.75;5133678;27;20434;-57
2022/03/09 10:53:58;;;;;;;0.70;0.37;;;;;;;10.16;34.80;95009.66;5133121;27;20418;-56
2022/03/09 10:56:27;;;;;;;0.50;0.50;;;;;;;10.49;34.52;95023.22;5132854;27;20517;-57
2022/03/09 10:58:55;;;;;;;0.70;0.50;;;;;;;9.73;35.02;95020.94;5133673;27;20476;-56
2022/03/09 11:01:26;;;;;;;0.83;0.37;;;;;;;10.34;34.95;95016.19;5133153;27;20848;-56
2022/03/09 11:03:55;;;;;;;0.40;0.30;;;;;;;11.67;34.33;95012.09;5133032;27;20423;-56
2022/03/09 11:06:25;;;;;;;1.00;1.00;;;;;;;11.87;34.09;95010.00;5132858;27;21020;-56
2022/03/09 11:08:54;;;;;;;1.43;0.50;;;;;;;11.40;33.04;95002.84;5133970;27;20458;-55
2022/03/09 11:11:23;;;;;;;0.43;0.30;;;;;;;11.78;32.58;95008.28;5133681;27;20940;-56
2022/03/09 11:13:52;;;;;;;0.70;0.70;;;;;;;11.37;32.63;95002.59;5133028;27;20458;-55
2022/03/09 11:16:20;;;;;;;0.43;0.43;;;;;;;12.13;31.44;95001.72;5133445;27;20470;-55
2022/03/09 11:18:50;;;;;;;0.40;0.30;;;;;;;11.36;31.55;95007.09;5132999;27;20906;-55
2022/03/09 11:21:20;;;;;;;0.50;0.50;;;;;;;11.84;31.03;94999.19;5133082;27;20935;-55
2022/03/09 11:23:50;;;;;;;0.50;0.40;;;;;;;12.13;32.26;95004.38;5132875;27;21021;-55
2022/03/09 11:26:21;;;;;;;0.50;0.30;;;;;;;12.17;29.66;94987.56;5132947;27;20457;-56
2022/03/09 11:29:00;;;;;;;0.30;0.20;;;;;;;12.23;28.94;94993.63;5132588;27;20966;-55
2022/03/09 11:31:47;;;;;;;0.43;0.40;;;;;;;12.04;30.35;95001.59;5132607;27;20430;-55
2022/03/09 11:34:38;;;;;;;0.40;0.40;;;;;;;12.14;29.82;94988.16;5133045;27;21011;-55
2022/03/09 11:37:09;;;;;;;1.60;1.50;;;;;;;12.19;29.32;94982.78;5133115;27;20502;-55
2022/03/09 11:39:39;;;;;;;0.30;0.30;;;;;;;13.09;29.67;94987.78;5132900;27;20469;-55
2022/03/09 11:42:31;;;;;;;0.40;0.40;;;;;;;13.00;28.88;94989.53;5132812;27;20980;-55
2022/03/09 11:45:42;;;;;;;1.50;0.30;;;;;;;13.08;28.85;94983.56;5132305;27;20950;-55
2022/03/09 11:48:16;;;;;;;0.40;0.30;;;;;;;11.28;32.76;94985.72;5132837;27;20466;-55
2022/03/09 11:51:09;;;;;;;2.33;0.70;;;;;;;10.55;32.35;94988.47;5132605;27;20938;-55
2022/03/09 11:53:45;;;;;;;0.60;0.60;;;;;;;10.55;33.10;94985.06;5129841;27;20437;-55
2022/03/09 11:56:24;;;;;;;1.10;0.43;;;;;;;10.81;30.07;94973.94;5132609;28;20458;-55